sensor_id;sensor_type;location;lat;lon;timestamp;temperature;humidity
5842;DHT22;2947;52.276;9.946;2022-12-18T00:01:05;-4.30;99.90
5842;DHT22;2947;52.276;9.946;2022-12-18T00:03:37;-4.30;99.90
5842;DHT22;2947;52.276;9.946;2022-12-18T00:06:03;-4.30;99.90
5842;DHT22;2947;52.276;9.946;2022-12-18T00:08:29;-4.30;99.90
5842;DHT22;2947;52.276;9.946;2022-12-18T00:10:54;-4.30;99.90
5842;DHT22;2947;52.276;9.946;2022-12-18T00:13:20;-4.30;99.90
5842;DHT22;2947;52.276;9.946;2022-12-18T00:15:46;-4.30;99.90
5842;DHT22;2947;52.276;9.946;2022-12-18T00:18:12;-4.30;99.90
5842;DHT22;2947;52.276;9.946;2022-12-18T00:20:39;-4.30;99.90
5842;DHT22;2947;52.276;9.946;2022-12-18T00:23:06;-4.30;99.90
5842;DHT22;2947;52.276;9.946;2022-12-18T00:25:35;-4.30;99.90
5842;DHT22;2947;52.276;9.946;2022-12-18T00:28:04;-4.40;99.90
5842;DHT22;2947;52.276;9.946;2022-12-18T00:30:30;-4.40;99.90
5842;DHT22;2947;52.276;9.946;2022-12-18T00:32:57;-4.40;99.90
5842;DHT22;2947;52.276;9.946;2022-12-18T00:35:22;-4.40;99.90
5842;DHT22;2947;52.276;9.946;2022-12-18T00:37:48;-4.30;99.90
5842;DHT22;2947;52.276;9.946;2022-12-18T00:40:14;-4.40;99.90
5842;DHT22;2947;52.276;9.946;2022-12-18T00:42:39;-4.30;99.90
5842;DHT22;2947;52.276;9.946;2022-12-18T00:45:26;-4.30;48.70
5842;DHT22;2947;52.276;9.946;2022-12-18T00:47:53;-4.30;47.60
5842;DHT22;2947;52.276;9.946;2022-12-18T00:50:20;-4.40;95.30
5842;DHT22;2947;52.276;9.946;2022-12-18T00:52:46;-4.40;99.90
5842;DHT22;2947;52.276;9.946;2022-12-18T00:55:13;-4.40;99.90
5842;DHT22;2947;52.276;9.946;2022-12-18T00:57:39;-4.40;99.90
5842;DHT22;2947;52.276;9.946;2022-12-18T01:00:06;-4.40;99.90
5842;DHT22;2947;52.276;9.946;2022-12-18T01:02:33;-4.40;99.90
5842;DHT22;2947;52.276;9.946;2022-12-18T01:04:59;-4.40;94.90
5842;DHT22;2947;52.276;9.946;2022-12-18T01:07:24;-4.50;99.90
5842;DHT22;2947;52.276;9.946;2022-12-18T01:09:50;-4.50;99.90
5842;DHT22;2947;52.276;9.946;2022-12-18T01:12:16;-4.50;99.90
5842;DHT22;2947;52.276;9.946;2022-12-18T01:14:41;-4.50;99.90
5842;DHT22;2947;52.276;9.946;2022-12-18T01:17:07;-4.50;99.90
5842;DHT22;2947;52.276;9.946;2022-12-18T01:19:33;-4.50;99.90
5842;DHT22;2947;52.276;9.946;2022-12-18T01:21:59;-4.50;99.90
5842;DHT22;2947;52.276;9.946;2022-12-18T01:24:25;-4.50;99.90
5842;DHT22;2947;52.276;9.946;2022-12-18T01:26:50;-4.50;99.90
5842;DHT22;2947;52.276;9.946;2022-12-18T01:29:16;-4.60;99.90
5842;DHT22;2947;52.276;9.946;2022-12-18T01:31:42;-4.60;99.90
5842;DHT22;2947;52.276;9.946;2022-12-18T01:34:08;-4.50;99.90
5842;DHT22;2947;52.276;9.946;2022-12-18T01:36:37;-4.60;99.90
5842;DHT22;2947;52.276;9.946;2022-12-18T01:39:07;-4.60;99.90
5842;DHT22;2947;52.276;9.946;2022-12-18T01:41:36;-4.60;99.90
5842;DHT22;2947;52.276;9.946;2022-12-18T01:50:25;-4.60;99.90
5842;DHT22;2947;52.276;9.946;2022-12-18T01:53:07;-4.60;99.90
5842;DHT22;2947;52.276;9.946;2022-12-18T01:55:47;-4.60;99.90
5842;DHT22;2947;52.276;9.946;2022-12-18T01:58:15;-4.60;99.90
5842;DHT22;2947;52.276;9.946;2022-12-18T02:00:41;-4.60;99.90
5842;DHT22;2947;52.276;9.946;2022-12-18T02:03:07;-4.70;99.90
5842;DHT22;2947;52.276;9.946;2022-12-18T02:08:33;-4.70;99.90
5842;DHT22;2947;52.276;9.946;2022-12-18T02:17:06;-4.70;99.90
5842;DHT22;2947;52.276;9.946;2022-12-18T02:20:01;-4.70;99.90
5842;DHT22;2947;52.276;9.946;2022-12-18T02:29:10;-4.80;99.90
5842;DHT22;2947;52.276;9.946;2022-12-18T02:31:53;-4.80;1.00
5842;DHT22;2947;52.276;9.946;2022-12-18T02:34:26;-4.80;1.00
5842;DHT22;2947;52.276;9.946;2022-12-18T02:36:54;-4.80;1.00
5842;DHT22;2947;52.276;9.946;2022-12-18T02:39:23;-4.80;1.00
5842;DHT22;2947;52.276;9.946;2022-12-18T02:41:51;-4.80;1.00
5842;DHT22;2947;52.276;9.946;2022-12-18T02:44:17;-4.70;1.00
5842;DHT22;2947;52.276;9.946;2022-12-18T02:46:46;-4.70;1.00
5842;DHT22;2947;52.276;9.946;2022-12-18T02:52:27;-4.80;1.00
5842;DHT22;2947;52.276;9.946;2022-12-18T03:00:23;-4.80;1.00
5842;DHT22;2947;52.276;9.946;2022-12-18T03:02:59;-4.80;1.00
5842;DHT22;2947;52.276;9.946;2022-12-18T03:05:35;-4.80;1.00
5842;DHT22;2947;52.276;9.946;2022-12-18T03:08:10;-4.80;1.00
5842;DHT22;2947;52.276;9.946;2022-12-18T03:10:45;-4.80;1.00
5842;DHT22;2947;52.276;9.946;2022-12-18T03:13:23;-4.70;1.00
5842;DHT22;2947;52.276;9.946;2022-12-18T03:15:56;-4.70;1.00
5842;DHT22;2947;52.276;9.946;2022-12-18T03:18:34;-4.70;1.00
5842;DHT22;2947;52.276;9.946;2022-12-18T03:21:05;-4.70;1.00
5842;DHT22;2947;52.276;9.946;2022-12-18T03:23:51;-4.70;1.00
5842;DHT22;2947;52.276;9.946;2022-12-18T03:26:20;-4.70;1.00
5842;DHT22;2947;52.276;9.946;2022-12-18T03:29:02;-4.70;1.00
5842;DHT22;2947;52.276;9.946;2022-12-18T03:31:32;-4.70;1.00
5842;DHT22;2947;52.276;9.946;2022-12-18T03:34:15;-4.70;1.00
5842;DHT22;2947;52.276;9.946;2022-12-18T03:36:43;-4.70;1.00
5842;DHT22;2947;52.276;9.946;2022-12-18T03:39:09;-4.80;1.00
5842;DHT22;2947;52.276;9.946;2022-12-18T03:41:45;-4.80;1.00
5842;DHT22;2947;52.276;9.946;2022-12-18T03:44:39;-4.80;1.00
5842;DHT22;2947;52.276;9.946;2022-12-18T03:50:20;-4.80;99.90
5842;DHT22;2947;52.276;9.946;2022-12-18T03:53:00;-4.80;99.90
5842;DHT22;2947;52.276;9.946;2022-12-18T03:55:33;-4.90;99.90
5842;DHT22;2947;52.276;9.946;2022-12-18T03:58:01;-4.90;99.90
5842;DHT22;2947;52.276;9.946;2022-12-18T04:00:30;-4.90;99.90
5842;DHT22;2947;52.276;9.946;2022-12-18T04:02:57;-4.90;99.90
5842;DHT22;2947;52.276;9.946;2022-12-18T04:05:27;-4.90;99.90
5842;DHT22;2947;52.276;9.946;2022-12-18T04:07:55;-4.90;99.90
5842;DHT22;2947;52.276;9.946;2022-12-18T04:10:21;-5.00;99.90
5842;DHT22;2947;52.276;9.946;2022-12-18T04:12:47;-5.00;99.90
5842;DHT22;2947;52.276;9.946;2022-12-18T04:15:13;-4.90;99.90
5842;DHT22;2947;52.276;9.946;2022-12-18T04:17:46;-5.00;99.90
5842;DHT22;2947;52.276;9.946;2022-12-18T04:20:13;-5.00;99.90
5842;DHT22;2947;52.276;9.946;2022-12-18T04:22:39;-5.00;99.90
5842;DHT22;2947;52.276;9.946;2022-12-18T04:25:04;-5.00;99.90
5842;DHT22;2947;52.276;9.946;2022-12-18T04:27:30;-5.10;99.90
5842;DHT22;2947;52.276;9.946;2022-12-18T04:29:56;-5.10;99.90
5842;DHT22;2947;52.276;9.946;2022-12-18T04:32:22;-5.10;99.90
5842;DHT22;2947;52.276;9.946;2022-12-18T04:34:47;-5.10;99.90
5842;DHT22;2947;52.276;9.946;2022-12-18T04:37:13;-5.10;99.90
5842;DHT22;2947;52.276;9.946;2022-12-18T04:39:39;-5.00;99.90
5842;DHT22;2947;52.276;9.946;2022-12-18T04:42:05;-5.00;1.00
5842;DHT22;2947;52.276;9.946;2022-12-18T04:44:31;-5.00;1.00
5842;DHT22;2947;52.276;9.946;2022-12-18T04:46:56;-5.00;99.90
5842;DHT22;2947;52.276;9.946;2022-12-18T04:49:22;-5.00;99.90
5842;DHT22;2947;52.276;9.946;2022-12-18T04:51:48;-5.10;99.90
5842;DHT22;2947;52.276;9.946;2022-12-18T04:54:13;-5.10;99.90
5842;DHT22;2947;52.276;9.946;2022-12-18T04:56:39;-5.10;99.90
5842;DHT22;2947;52.276;9.946;2022-12-18T04:59:05;-5.10;99.90
5842;DHT22;2947;52.276;9.946;2022-12-18T05:01:30;-5.10;99.90
5842;DHT22;2947;52.276;9.946;2022-12-18T05:03:59;-5.10;99.90
5842;DHT22;2947;52.276;9.946;2022-12-18T05:06:25;-5.10;99.90
5842;DHT22;2947;52.276;9.946;2022-12-18T05:08:51;-5.10;99.90
5842;DHT22;2947;52.276;9.946;2022-12-18T05:11:16;-5.10;99.90
5842;DHT22;2947;52.276;9.946;2022-12-18T05:13:43;-5.10;99.90
5842;DHT22;2947;52.276;9.946;2022-12-18T05:16:10;-5.10;99.90
5842;DHT22;2947;52.276;9.946;2022-12-18T05:18:37;-5.10;99.90
5842;DHT22;2947;52.276;9.946;2022-12-18T05:21:03;-5.10;99.90
5842;DHT22;2947;52.276;9.946;2022-12-18T05:23:29;-5.20;99.90
5842;DHT22;2947;52.276;9.946;2022-12-18T05:25:57;-5.20;99.90
5842;DHT22;2947;52.276;9.946;2022-12-18T05:28:26;-5.20;99.90
5842;DHT22;2947;52.276;9.946;2022-12-18T05:30:56;-4.00;99.90
5842;DHT22;2947;52.276;9.946;2022-12-18T05:33:25;-5.20;99.90
5842;DHT22;2947;52.276;9.946;2022-12-18T05:35:53;-5.20;99.90
5842;DHT22;2947;52.276;9.946;2022-12-18T05:38:21;-5.20;99.90
5842;DHT22;2947;52.276;9.946;2022-12-18T05:40:48;-5.20;99.90
5842;DHT22;2947;52.276;9.946;2022-12-18T05:43:14;-5.20;99.90
5842;DHT22;2947;52.276;9.946;2022-12-18T05:45:40;-5.20;99.90
5842;DHT22;2947;52.276;9.946;2022-12-18T05:48:07;-5.20;99.90
5842;DHT22;2947;52.276;9.946;2022-12-18T05:50:37;-5.20;99.90
5842;DHT22;2947;52.276;9.946;2022-12-18T05:53:04;-5.10;99.90
5842;DHT22;2947;52.276;9.946;2022-12-18T05:55:38;-5.10;99.90
5842;DHT22;2947;52.276;9.946;2022-12-18T05:58:06;-5.20;99.90
5842;DHT22;2947;52.276;9.946;2022-12-18T06:00:33;-5.20;99.90
5842;DHT22;2947;52.276;9.946;2022-12-18T06:03:01;-5.20;99.90
5842;DHT22;2947;52.276;9.946;2022-12-18T06:05:27;-5.20;99.90
5842;DHT22;2947;52.276;9.946;2022-12-18T06:07:53;-5.20;99.90
5842;DHT22;2947;52.276;9.946;2022-12-18T06:10:19;-5.20;99.90
5842;DHT22;2947;52.276;9.946;2022-12-18T06:12:44;-5.20;99.90
5842;DHT22;2947;52.276;9.946;2022-12-18T06:15:10;-5.20;99.90
5842;DHT22;2947;52.276;9.946;2022-12-18T06:17:37;-5.20;99.90
5842;DHT22;2947;52.276;9.946;2022-12-18T06:20:03;-5.10;99.90
5842;DHT22;2947;52.276;9.946;2022-12-18T06:22:33;-5.10;99.90
5842;DHT22;2947;52.276;9.946;2022-12-18T06:24:58;-5.10;99.90
5842;DHT22;2947;52.276;9.946;2022-12-18T06:27:24;-5.10;99.90
5842;DHT22;2947;52.276;9.946;2022-12-18T06:29:50;-5.00;99.90
5842;DHT22;2947;52.276;9.946;2022-12-18T06:32:16;-5.00;99.90
5842;DHT22;2947;52.276;9.946;2022-12-18T06:34:42;-5.00;99.90
5842;DHT22;2947;52.276;9.946;2022-12-18T06:37:07;-5.00;99.90
5842;DHT22;2947;52.276;9.946;2022-12-18T06:39:33;-5.00;99.90
5842;DHT22;2947;52.276;9.946;2022-12-18T06:41:59;-4.90;99.90
5842;DHT22;2947;52.276;9.946;2022-12-18T06:44:24;-4.90;99.90
5842;DHT22;2947;52.276;9.946;2022-12-18T06:46:50;-5.00;99.90
5842;DHT22;2947;52.276;9.946;2022-12-18T06:49:16;-5.00;99.90
5842;DHT22;2947;52.276;9.946;2022-12-18T06:51:42;-5.00;99.90
5842;DHT22;2947;52.276;9.946;2022-12-18T06:54:08;-5.00;99.20
5842;DHT22;2947;52.276;9.946;2022-12-18T06:56:34;-5.00;59.10
5842;DHT22;2947;52.276;9.946;2022-12-18T06:59:00;-5.00;1.00
5842;DHT22;2947;52.276;9.946;2022-12-18T07:01:26;-5.00;1.00
5842;DHT22;2947;52.276;9.946;2022-12-18T07:03:52;-5.00;1.00
5842;DHT22;2947;52.276;9.946;2022-12-18T07:06:21;-5.00;1.00
5842;DHT22;2947;52.276;9.946;2022-12-18T07:08:49;-5.00;1.00
5842;DHT22;2947;52.276;9.946;2022-12-18T07:11:16;-5.00;1.00
5842;DHT22;2947;52.276;9.946;2022-12-18T07:13:42;-5.10;1.00
5842;DHT22;2947;52.276;9.946;2022-12-18T07:16:11;-5.10;1.00
5842;DHT22;2947;52.276;9.946;2022-12-18T07:18:41;-5.10;1.00
5842;DHT22;2947;52.276;9.946;2022-12-18T07:21:10;-5.20;99.90
5842;DHT22;2947;52.276;9.946;2022-12-18T07:23:38;-5.20;1.00
5842;DHT22;2947;52.276;9.946;2022-12-18T07:26:04;-5.20;1.00
5842;DHT22;2947;52.276;9.946;2022-12-18T07:28:32;-5.20;1.00
5842;DHT22;2947;52.276;9.946;2022-12-18T07:31:03;-5.20;99.90
5842;DHT22;2947;52.276;9.946;2022-12-18T07:33:29;-5.20;99.90
5842;DHT22;2947;52.276;9.946;2022-12-18T07:35:55;-5.20;99.90
5842;DHT22;2947;52.276;9.946;2022-12-18T07:38:21;-5.20;99.90
5842;DHT22;2947;52.276;9.946;2022-12-18T07:40:46;-5.20;99.90
5842;DHT22;2947;52.276;9.946;2022-12-18T07:43:12;-5.20;99.90
5842;DHT22;2947;52.276;9.946;2022-12-18T07:45:38;-5.20;99.90
5842;DHT22;2947;52.276;9.946;2022-12-18T07:48:04;-5.20;99.90
5842;DHT22;2947;52.276;9.946;2022-12-18T07:50:29;-5.20;99.90
5842;DHT22;2947;52.276;9.946;2022-12-18T07:52:55;-5.20;99.90
5842;DHT22;2947;52.276;9.946;2022-12-18T07:55:21;-5.20;99.90
5842;DHT22;2947;52.276;9.946;2022-12-18T07:57:46;-5.20;99.90
5842;DHT22;2947;52.276;9.946;2022-12-18T08:00:12;-5.10;99.90
5842;DHT22;2947;52.276;9.946;2022-12-18T08:02:38;-5.10;99.90
5842;DHT22;2947;52.276;9.946;2022-12-18T08:05:04;-5.10;99.90
5842;DHT22;2947;52.276;9.946;2022-12-18T08:07:30;-5.00;1.00
5842;DHT22;2947;52.276;9.946;2022-12-18T08:09:58;-4.90;1.00
5842;DHT22;2947;52.276;9.946;2022-12-18T08:12:24;-4.90;1.00
5842;DHT22;2947;52.276;9.946;2022-12-18T08:14:49;-4.90;1.00
5842;DHT22;2947;52.276;9.946;2022-12-18T08:17:15;-4.80;1.00
5842;DHT22;2947;52.276;9.946;2022-12-18T08:19:41;-4.80;1.00
5842;DHT22;2947;52.276;9.946;2022-12-18T08:22:06;-4.70;1.00
5842;DHT22;2947;52.276;9.946;2022-12-18T08:24:32;-4.70;1.00
5842;DHT22;2947;52.276;9.946;2022-12-18T08:26:58;-4.60;1.00
5842;DHT22;2947;52.276;9.946;2022-12-18T08:29:24;-4.50;1.00
5842;DHT22;2947;52.276;9.946;2022-12-18T08:31:49;-4.50;1.00
5842;DHT22;2947;52.276;9.946;2022-12-18T08:34:15;-4.30;1.00
5842;DHT22;2947;52.276;9.946;2022-12-18T08:36:41;-4.30;1.00
5842;DHT22;2947;52.276;9.946;2022-12-18T08:39:06;-4.10;1.00
5842;DHT22;2947;52.276;9.946;2022-12-18T08:41:32;-4.10;1.00
5842;DHT22;2947;52.276;9.946;2022-12-18T08:43:58;-4.00;99.90
5842;DHT22;2947;52.276;9.946;2022-12-18T08:46:43;-3.90;99.90
5842;DHT22;2947;52.276;9.946;2022-12-18T08:49:10;-3.90;99.90
5842;DHT22;2947;52.276;9.946;2022-12-18T08:51:37;-3.90;99.90
5842;DHT22;2947;52.276;9.946;2022-12-18T08:54:04;-3.90;99.90
5842;DHT22;2947;52.276;9.946;2022-12-18T08:56:31;-3.80;99.90
5842;DHT22;2947;52.276;9.946;2022-12-18T08:58:57;-3.80;1.00
5842;DHT22;2947;52.276;9.946;2022-12-18T09:01:23;-3.90;1.00
5842;DHT22;2947;52.276;9.946;2022-12-18T09:03:50;-3.90;1.00
5842;DHT22;2947;52.276;9.946;2022-12-18T09:06:17;-3.90;99.90
5842;DHT22;2947;52.276;9.946;2022-12-18T09:08:44;-4.00;99.90
5842;DHT22;2947;52.276;9.946;2022-12-18T09:11:31;-4.00;1.00
5842;DHT22;2947;52.276;9.946;2022-12-18T09:13:59;-4.10;99.90
5842;DHT22;2947;52.276;9.946;2022-12-18T09:16:26;-4.10;99.90
5842;DHT22;2947;52.276;9.946;2022-12-18T09:18:56;-4.00;1.00
5842;DHT22;2947;52.276;9.946;2022-12-18T09:21:27;-4.00;1.00
5842;DHT22;2947;52.276;9.946;2022-12-18T09:23:57;-4.00;1.00
5842;DHT22;2947;52.276;9.946;2022-12-18T09:26:25;-3.90;1.00
5842;DHT22;2947;52.276;9.946;2022-12-18T09:28:51;-3.90;1.00
5842;DHT22;2947;52.276;9.946;2022-12-18T09:31:19;-3.80;57.70
5842;DHT22;2947;52.276;9.946;2022-12-18T09:33:45;-3.80;52.60
5842;DHT22;2947;52.276;9.946;2022-12-18T09:36:13;-3.80;48.80
5842;DHT22;2947;52.276;9.946;2022-12-18T09:38:41;-3.80;99.90
5842;DHT22;2947;52.276;9.946;2022-12-18T09:41:39;-3.80;99.90
5842;DHT22;2947;52.276;9.946;2022-12-18T09:47:17;-3.70;99.90
5842;DHT22;2947;52.276;9.946;2022-12-18T09:49:44;-3.60;99.90
5842;DHT22;2947;52.276;9.946;2022-12-18T09:52:13;-3.50;99.90
5842;DHT22;2947;52.276;9.946;2022-12-18T09:54:42;-3.50;99.90
5842;DHT22;2947;52.276;9.946;2022-12-18T09:57:17;-3.40;99.90
5842;DHT22;2947;52.276;9.946;2022-12-18T09:59:49;-3.30;99.90
5842;DHT22;2947;52.276;9.946;2022-12-18T10:02:21;-3.20;99.90
5842;DHT22;2947;52.276;9.946;2022-12-18T10:05:07;-3.20;21.80
5842;DHT22;2947;52.276;9.946;2022-12-18T10:08:13;-3.10;1.00
5842;DHT22;2947;52.276;9.946;2022-12-18T10:10:50;-3.00;1.00
5842;DHT22;2947;52.276;9.946;2022-12-18T10:13:41;-2.90;12.40
5842;DHT22;2947;52.276;9.946;2022-12-18T10:16:19;-2.90;13.60
5842;DHT22;2947;52.276;9.946;2022-12-18T10:19:19;-2.80;1.00
5842;DHT22;2947;52.276;9.946;2022-12-18T10:24:54;-2.60;1.00
5842;DHT22;2947;52.276;9.946;2022-12-18T10:27:25;-2.60;1.00
5842;DHT22;2947;52.276;9.946;2022-12-18T10:29:52;-2.50;1.00
5842;DHT22;2947;52.276;9.946;2022-12-18T10:32:27;-2.40;99.90
5842;DHT22;2947;52.276;9.946;2022-12-18T10:34:56;-2.20;99.90
5842;DHT22;2947;52.276;9.946;2022-12-18T10:37:25;-2.10;99.90
5842;DHT22;2947;52.276;9.946;2022-12-18T10:40:14;-2.00;1.00
5842;DHT22;2947;52.276;9.946;2022-12-18T10:42:41;-1.90;99.90
5842;DHT22;2947;52.276;9.946;2022-12-18T10:45:15;-1.90;99.90
5842;DHT22;2947;52.276;9.946;2022-12-18T10:47:45;-1.80;99.90
5842;DHT22;2947;52.276;9.946;2022-12-18T10:50:33;-1.60;99.90
5842;DHT22;2947;52.276;9.946;2022-12-18T10:53:01;-1.50;1.00
5842;DHT22;2947;52.276;9.946;2022-12-18T10:55:34;-1.40;1.00
5842;DHT22;2947;52.276;9.946;2022-12-18T10:58:29;-1.20;99.90
5842;DHT22;2947;52.276;9.946;2022-12-18T11:01:12;-1.20;39.90
5842;DHT22;2947;52.276;9.946;2022-12-18T11:06:13;-0.90;1.00
5842;DHT22;2947;52.276;9.946;2022-12-18T11:08:43;-0.80;99.90
5842;DHT22;2947;52.276;9.946;2022-12-18T11:11:23;-0.80;99.90
5842;DHT22;2947;52.276;9.946;2022-12-18T11:14:02;-0.70;99.90
5842;DHT22;2947;52.276;9.946;2022-12-18T11:16:33;-0.70;17.10
5842;DHT22;2947;52.276;9.946;2022-12-18T11:19:34;-0.60;99.90
5842;DHT22;2947;52.276;9.946;2022-12-18T11:22:03;-0.60;99.90
5842;DHT22;2947;52.276;9.946;2022-12-18T11:25:36;-0.40;1.00
5842;DHT22;2947;52.276;9.946;2022-12-18T11:27:38;-0.30;99.90
5842;DHT22;2947;52.276;9.946;2022-12-18T11:30:13;-0.30;99.90
5842;DHT22;2947;52.276;9.946;2022-12-18T11:33:19;-0.20;99.90
5842;DHT22;2947;52.276;9.946;2022-12-18T11:35:51;-0.20;99.90
5842;DHT22;2947;52.276;9.946;2022-12-18T11:38:24;-0.20;99.90
5842;DHT22;2947;52.276;9.946;2022-12-18T11:40:58;-0.20;99.90
5842;DHT22;2947;52.276;9.946;2022-12-18T11:43:53;-0.10;99.90
5842;DHT22;2947;52.276;9.946;2022-12-18T11:46:32;-0.10;1.00
5842;DHT22;2947;52.276;9.946;2022-12-18T11:49:14;-0.10;1.00
5842;DHT22;2947;52.276;9.946;2022-12-18T11:51:59;-0.10;51.00
5842;DHT22;2947;52.276;9.946;2022-12-18T11:54:28;-0.10;1.00
5842;DHT22;2947;52.276;9.946;2022-12-18T11:57:13;0.00;1.00
5842;DHT22;2947;52.276;9.946;2022-12-18T12:00:09;0.00;1.00
5842;DHT22;2947;52.276;9.946;2022-12-18T12:05:45;0.20;99.90
5842;DHT22;2947;52.276;9.946;2022-12-18T12:08:23;0.30;99.90
5842;DHT22;2947;52.276;9.946;2022-12-18T12:11:16;0.30;99.90
5842;DHT22;2947;52.276;9.946;2022-12-18T12:16:51;0.40;99.90
5842;DHT22;2947;52.276;9.946;2022-12-18T12:30:20;0.30;99.90
5842;DHT22;2947;52.276;9.946;2022-12-18T12:33:20;0.20;99.90
5842;DHT22;2947;52.276;9.946;2022-12-18T12:39:18;0.20;99.90
5842;DHT22;2947;52.276;9.946;2022-12-18T12:41:39;0.20;99.90
5842;DHT22;2947;52.276;9.946;2022-12-18T12:44:32;0.10;1.00
5842;DHT22;2947;52.276;9.946;2022-12-18T12:47:12;0.00;1.00
5842;DHT22;2947;52.276;9.946;2022-12-18T12:49:40;-0.10;1.00
5842;DHT22;2947;52.276;9.946;2022-12-18T12:52:16;-0.20;99.90
5842;DHT22;2947;52.276;9.946;2022-12-18T12:54:47;-0.20;99.90
5842;DHT22;2947;52.276;9.946;2022-12-18T12:57:43;-0.20;1.00
5842;DHT22;2947;52.276;9.946;2022-12-18T13:00:15;-0.30;1.00
5842;DHT22;2947;52.276;9.946;2022-12-18T13:06:08;-0.40;99.90
5842;DHT22;2947;52.276;9.946;2022-12-18T13:08:57;-0.50;1.00
5842;DHT22;2947;52.276;9.946;2022-12-18T13:11:51;-0.50;1.00
5842;DHT22;2947;52.276;9.946;2022-12-18T13:14:40;-0.60;99.90
5842;DHT22;2947;52.276;9.946;2022-12-18T13:17:24;-0.60;1.00
5842;DHT22;2947;52.276;9.946;2022-12-18T13:20:23;-0.60;1.00
5842;DHT22;2947;52.276;9.946;2022-12-18T13:22:58;-0.70;1.00
5842;DHT22;2947;52.276;9.946;2022-12-18T13:28:06;-0.80;1.00
5842;DHT22;2947;52.276;9.946;2022-12-18T13:45:49;-1.10;99.90
5842;DHT22;2947;52.276;9.946;2022-12-18T13:48:26;-1.10;99.90
5842;DHT22;2947;52.276;9.946;2022-12-18T13:51:13;-1.20;99.90
5842;DHT22;2947;52.276;9.946;2022-12-18T13:53:56;-1.10;1.00
5842;DHT22;2947;52.276;9.946;2022-12-18T13:56:27;-1.20;1.00
5842;DHT22;2947;52.276;9.946;2022-12-18T13:59:17;-1.20;1.00
5842;DHT22;2947;52.276;9.946;2022-12-18T14:01:55;-1.20;1.00
5842;DHT22;2947;52.276;9.946;2022-12-18T14:04:24;-1.30;1.00
5842;DHT22;2947;52.276;9.946;2022-12-18T14:07:05;-1.30;99.90
5842;DHT22;2947;52.276;9.946;2022-12-18T14:09:52;-1.30;99.90
5842;DHT22;2947;52.276;9.946;2022-12-18T14:12:26;-1.40;99.90
5842;DHT22;2947;52.276;9.946;2022-12-18T14:15:30;-1.40;99.90
5842;DHT22;2947;52.276;9.946;2022-12-18T14:18:25;-1.40;1.00
5842;DHT22;2947;52.276;9.946;2022-12-18T14:20:59;-1.50;40.00
5842;DHT22;2947;52.276;9.946;2022-12-18T14:23:38;-1.50;1.00
5842;DHT22;2947;52.276;9.946;2022-12-18T14:26:26;-1.50;99.90
5842;DHT22;2947;52.276;9.946;2022-12-18T14:28:59;-1.50;99.90
5842;DHT22;2947;52.276;9.946;2022-12-18T14:31:28;-1.60;1.00
5842;DHT22;2947;52.276;9.946;2022-12-18T14:33:55;-1.60;99.90
5842;DHT22;2947;52.276;9.946;2022-12-18T14:36:27;-1.70;1.00
5842;DHT22;2947;52.276;9.946;2022-12-18T14:38:56;-1.70;1.00
5842;DHT22;2947;52.276;9.946;2022-12-18T14:41:23;-1.70;99.90
5842;DHT22;2947;52.276;9.946;2022-12-18T14:43:51;-1.70;1.00
5842;DHT22;2947;52.276;9.946;2022-12-18T14:46:47;-1.80;99.90
5842;DHT22;2947;52.276;9.946;2022-12-18T14:52:03;-1.90;1.00
5842;DHT22;2947;52.276;9.946;2022-12-18T14:54:31;-1.80;1.00
5842;DHT22;2947;52.276;9.946;2022-12-18T14:57:01;-1.90;99.90
5842;DHT22;2947;52.276;9.946;2022-12-18T14:59:30;-1.90;99.90
5842;DHT22;2947;52.276;9.946;2022-12-18T15:02:04;-1.90;1.00
5842;DHT22;2947;52.276;9.946;2022-12-18T15:04:41;-1.90;99.90
5842;DHT22;2947;52.276;9.946;2022-12-18T15:07:14;-2.00;99.90
5842;DHT22;2947;52.276;9.946;2022-12-18T15:10:19;-2.00;1.00
5842;DHT22;2947;52.276;9.946;2022-12-18T15:18:13;-2.10;99.90
5842;DHT22;2947;52.276;9.946;2022-12-18T15:20:43;-2.10;99.90
5842;DHT22;2947;52.276;9.946;2022-12-18T15:26:14;-2.20;1.00
5842;DHT22;2947;52.276;9.946;2022-12-18T15:28:48;-2.20;1.00
5842;DHT22;2947;52.276;9.946;2022-12-18T15:33:45;-2.20;1.00
5842;DHT22;2947;52.276;9.946;2022-12-18T15:36:29;-2.20;1.00
5842;DHT22;2947;52.276;9.946;2022-12-18T15:38:56;-2.20;55.10
5842;DHT22;2947;52.276;9.946;2022-12-18T15:41:23;-2.30;99.90
5842;DHT22;2947;52.276;9.946;2022-12-18T15:43:50;-2.30;99.90
5842;DHT22;2947;52.276;9.946;2022-12-18T15:48:46;-2.20;95.90
5842;DHT22;2947;52.276;9.946;2022-12-18T15:51:19;-2.30;62.50
5842;DHT22;2947;52.276;9.946;2022-12-18T15:53:54;-2.30;99.90
5842;DHT22;2947;52.276;9.946;2022-12-18T15:56:22;-2.30;99.90
5842;DHT22;2947;52.276;9.946;2022-12-18T15:59:14;-2.30;99.90
5842;DHT22;2947;52.276;9.946;2022-12-18T16:01:44;-2.30;99.90
5842;DHT22;2947;52.276;9.946;2022-12-18T16:04:12;-2.30;99.90
5842;DHT22;2947;52.276;9.946;2022-12-18T16:06:40;-2.30;99.90
5842;DHT22;2947;52.276;9.946;2022-12-18T16:09:06;-2.30;99.90
5842;DHT22;2947;52.276;9.946;2022-12-18T16:11:33;-2.40;99.90
5842;DHT22;2947;52.276;9.946;2022-12-18T16:14:05;-2.30;99.90
5842;DHT22;2947;52.276;9.946;2022-12-18T16:16:46;-2.40;99.90
5842;DHT22;2947;52.276;9.946;2022-12-18T16:19:13;-2.40;99.90
5842;DHT22;2947;52.276;9.946;2022-12-18T16:21:39;-2.40;99.90
5842;DHT22;2947;52.276;9.946;2022-12-18T16:24:05;-2.40;99.90
5842;DHT22;2947;52.276;9.946;2022-12-18T16:26:33;-2.40;99.90
5842;DHT22;2947;52.276;9.946;2022-12-18T16:28:59;-2.50;99.90
5842;DHT22;2947;52.276;9.946;2022-12-18T16:31:24;-2.50;99.90
5842;DHT22;2947;52.276;9.946;2022-12-18T16:34:18;-2.40;99.90
5842;DHT22;2947;52.276;9.946;2022-12-18T16:36:49;-2.40;99.90
5842;DHT22;2947;52.276;9.946;2022-12-18T16:39:16;-2.40;99.90
5842;DHT22;2947;52.276;9.946;2022-12-18T16:41:42;-2.40;99.90
5842;DHT22;2947;52.276;9.946;2022-12-18T16:44:08;-2.40;99.90
5842;DHT22;2947;52.276;9.946;2022-12-18T16:46:34;-2.40;99.90
5842;DHT22;2947;52.276;9.946;2022-12-18T16:49:00;-2.50;1.00
5842;DHT22;2947;52.276;9.946;2022-12-18T16:51:26;-2.50;1.00
5842;DHT22;2947;52.276;9.946;2022-12-18T16:53:56;-2.50;1.00
5842;DHT22;2947;52.276;9.946;2022-12-18T16:56:24;-2.50;1.00
5842;DHT22;2947;52.276;9.946;2022-12-18T16:58:52;-2.50;1.00
5842;DHT22;2947;52.276;9.946;2022-12-18T17:01:20;-2.50;1.00
5842;DHT22;2947;52.276;9.946;2022-12-18T17:03:58;-2.50;1.00
5842;DHT22;2947;52.276;9.946;2022-12-18T17:06:27;-2.50;99.90
5842;DHT22;2947;52.276;9.946;2022-12-18T17:09:00;-2.50;99.90
5842;DHT22;2947;52.276;9.946;2022-12-18T17:11:30;-2.50;99.90
5842;DHT22;2947;52.276;9.946;2022-12-18T17:13:57;-2.50;99.90
5842;DHT22;2947;52.276;9.946;2022-12-18T17:16:23;-2.50;99.90
5842;DHT22;2947;52.276;9.946;2022-12-18T17:18:50;-2.60;99.90
5842;DHT22;2947;52.276;9.946;2022-12-18T17:21:17;-2.60;1.00
5842;DHT22;2947;52.276;9.946;2022-12-18T17:23:43;-2.60;99.90
5842;DHT22;2947;52.276;9.946;2022-12-18T17:26:10;-2.60;99.90
5842;DHT22;2947;52.276;9.946;2022-12-18T17:28:38;-2.60;99.90
5842;DHT22;2947;52.276;9.946;2022-12-18T17:31:19;-2.60;99.90
5842;DHT22;2947;52.276;9.946;2022-12-18T17:33:46;-2.60;99.90
5842;DHT22;2947;52.276;9.946;2022-12-18T17:36:13;-2.60;99.90
5842;DHT22;2947;52.276;9.946;2022-12-18T17:38:55;-2.60;99.90
5842;DHT22;2947;52.276;9.946;2022-12-18T17:41:23;-2.60;99.90
5842;DHT22;2947;52.276;9.946;2022-12-18T17:43:57;-2.60;99.90
5842;DHT22;2947;52.276;9.946;2022-12-18T17:46:29;-2.60;99.90
5842;DHT22;2947;52.276;9.946;2022-12-18T17:48:58;-2.60;99.90
5842;DHT22;2947;52.276;9.946;2022-12-18T17:51:24;-2.60;99.90
5842;DHT22;2947;52.276;9.946;2022-12-18T17:53:50;-2.60;99.90
5842;DHT22;2947;52.276;9.946;2022-12-18T17:56:18;-2.60;99.90
5842;DHT22;2947;52.276;9.946;2022-12-18T17:58:45;-2.50;99.90
5842;DHT22;2947;52.276;9.946;2022-12-18T18:01:14;-2.50;99.90
5842;DHT22;2947;52.276;9.946;2022-12-18T18:03:41;-2.50;99.90
5842;DHT22;2947;52.276;9.946;2022-12-18T18:06:08;-2.50;99.90
5842;DHT22;2947;52.276;9.946;2022-12-18T18:08:34;-2.50;99.90
5842;DHT22;2947;52.276;9.946;2022-12-18T18:11:04;-2.50;99.90
5842;DHT22;2947;52.276;9.946;2022-12-18T18:13:50;-2.50;99.90